Strona główna
METAR-TAF:

METAR-TAF

Lotnisko :

Port lotniczy Åre/Östersund

Östersund-Frösön, Szwecja

Szerokość geograficzna: 63-11N, Długość geograficzna: 014-30E, wysokość: 376 m

Aktualna obserwacja pogody

Raport powstał 26 minut temu, godzina 21:20 UTC
Wiatr 10 kt od południowy wschód
Temperatura 13°C
Wilgotność 51%
Ciśnienie 1002 hPa
Widzialność 10 km lub więcej

METAR: ESNZ 042120Z AUTO 14010KT 9999 NCD 13/03 Q1002

czas: 23:46 (21:46 UTC)

Prognoza

Raport powstał 16 godziny i 16 minut temu, godzina 05:30 UTC
Prognoza ważna od 04 godzina 06 UTC do 04 godzina 10 UTC
Wiatr 10 kt od południowy wschód
Widzialność 10 km lub więcej
Brak chmur poniżej 1500 m i brak chmur cumulonimbus

TAF: ESNZ 040530Z 0406/0410 14010KT CAVOK

Obserwacja i prognoza pogody dla ponad 4000 lotnisk (raport METAR i TAF).

Dostępne stacje oznaczono żółtymi i czerwonymi punktami na mapie.

Najedź kursorem aby zobaczyć nazwę stacji.

Kliknij aby zobaczyć obserwacje i prognozy pogody.

Aby zmienić mapę: kliknij na zielony przycisk z czarnym krzyżykiem, aby powiększyć; na zielony przycisk z myślnikiem, aby pomniejszyć; na zielone strzałki, aby przejść do map sąsiednich.


METAR-TAF: